Time;durP1;ratioP1;P1;durP2;ratioP2;P2;SDS_P1;SDS_P2;PMS_P1;PMS_P2;Temp;Humidity;BMP_temperature;BMP_pressure;BME280_temperature;BME280_humidity;BME280_pressure;Samples;Min_cycle;Max_cycle;Signal;HPM_P1;HPM_P2
2022/02/16 00:00:10;;;;;;;10.68;4.12;;;;;;;9.56;60.60;102207.83;1834841;77;21469;-71
2022/02/16 00:02:39;;;;;;;11.45;3.77;;;;;;;9.55;60.65;102202.20;1827573;77;21017;-72
2022/02/16 00:05:09;;;;;;;7.47;4.37;;;;;;;9.56;60.68;102203.93;1834464;77;20985;-70
2022/02/16 00:07:40;;;;;;;12.70;4.35;;;;;;;9.58;60.71;102207.86;1834185;78;21033;-70
2022/02/16 00:10:09;;;;;;;10.32;4.37;;;;;;;9.61;60.59;102206.13;1834652;77;20970;-69
2022/02/16 00:12:37;;;;;;;6.25;3.30;;;;;;;9.61;60.63;102199.64;1834399;77;21009;-70
2022/02/16 00:15:05;;;;;;;12.80;4.20;;;;;;;9.61;60.65;102193.14;1834288;77;21021;-74
2022/02/16 00:17:32;;;;;;;9.60;3.90;;;;;;;9.64;60.49;102197.03;1834624;77;21501;-71
2022/02/16 00:20:01;;;;;;;10.53;3.77;;;;;;;9.63;60.48;102195.31;1834531;77;20978;-70
2022/02/16 00:22:27;;;;;;;7.60;4.28;;;;;;;9.59;60.75;102197.46;1831133;78;21013;-70
2022/02/16 00:24:53;;;;;;;9.48;4.00;;;;;;;9.59;60.63;102192.27;1834706;78;20954;-72
2022/02/16 00:27:20;;;;;;;10.38;4.03;;;;;;;9.53;60.88;102189.64;1834466;77;21005;-70
2022/02/16 00:29:47;;;;;;;11.33;3.95;;;;;;;9.52;60.79;102186.59;1831178;77;21112;-69
2022/02/16 00:32:14;;;;;;;7.58;3.70;;;;;;;9.48;60.98;102181.39;1829238;77;21044;-72
2022/02/16 00:34:40;;;;;;;10.95;4.55;;;;;;;9.48;61.03;102186.59;1828895;77;21002;-72
2022/02/16 00:37:09;;;;;;;11.57;4.05;;;;;;;9.47;61.08;102177.04;1828728;77;21002;-72
2022/02/16 00:39:35;;;;;;;10.05;3.90;;;;;;;9.47;61.15;102180.52;1829184;78;20942;-74
2022/02/16 00:42:02;;;;;;;12.37;3.85;;;;;;;9.47;61.14;102179.64;1828987;77;21010;-70
2022/02/16 00:44:29;;;;;;;7.67;3.40;;;;;;;9.47;61.09;102180.52;1829036;77;21037;-74
2022/02/16 00:46:56;;;;;;;8.58;3.80;;;;;;;9.46;61.12;102177.45;1828789;77;21013;-69
2022/02/16 00:49:23;;;;;;;10.95;3.95;;;;;;;9.44;61.19;102172.69;1828986;77;20986;-71
2022/02/16 00:51:51;;;;;;;10.03;3.77;;;;;;;9.43;61.24;102176.16;1829068;77;21532;-70
2022/02/16 00:54:18;;;;;;;8.25;3.77;;;;;;;9.41;61.30;102176.58;1829288;78;21028;-72
2022/02/16 00:56:46;;;;;;;11.90;4.05;;;;;;;9.41;61.37;102172.69;1829048;78;20989;-69
2022/02/16 00:59:13;;;;;;;15.53;4.28;;;;;;;9.40;61.35;102169.63;1829041;78;20962;-73
2022/02/16 01:01:40;;;;;;;9.10;3.77;;;;;;;9.41;61.45;102164.89;1828995;78;20989;-69
2022/02/16 01:04:06;;;;;;;10.30;3.92;;;;;;;9.41;61.47;102168.79;1829171;78;21008;-70
2022/02/16 01:06:33;;;;;;;9.80;3.45;;;;;;;9.42;61.48;102165.31;1828816;77;21010;-73
2022/02/16 01:09:00;;;;;;;10.08;3.90;;;;;;;9.43;61.43;102163.17;1828752;78;21014;-69
2022/02/16 01:11:27;;;;;;;8.70;3.55;;;;;;;9.43;61.44;102162.30;1828887;78;21060;-71
2022/02/16 01:13:54;;;;;;;13.88;4.70;;;;;;;9.42;61.43;102157.52;1828965;78;21025;-74
2022/02/16 01:16:21;;;;;;;11.73;3.98;;;;;;;9.43;61.38;102157.98;1828974;78;21009;-71
2022/02/16 01:18:50;;;;;;;8.83;4.05;;;;;;;9.42;61.40;102148.43;1829053;78;21493;-71
2022/02/16 01:21:17;;;;;;;12.45;3.87;;;;;;;9.41;61.49;102145.83;1828944;78;20982;-76
2022/02/16 01:23:44;;;;;;;8.75;3.95;;;;;;;9.41;61.44;102136.74;1829066;78;20977;-75
2022/02/16 01:26:13;;;;;;;12.80;4.22;;;;;;;9.40;61.48;102139.77;1828918;78;21019;-74
2022/02/16 01:28:41;;;;;;;13.50;4.28;;;;;;;9.39;61.53;102135.44;1828604;77;21001;-72
2022/02/16 01:31:07;;;;;;;11.18;4.58;;;;;;;9.37;61.62;102129.38;1801272;78;21056;-70
2022/02/16 01:33:36;;;;;;;10.75;3.95;;;;;;;9.38;61.70;102138.01;1797065;78;21021;-72
2022/02/16 01:36:03;;;;;;;9.18;3.98;;;;;;;9.37;61.67;102135.87;1801318;78;21013;-72
2022/02/16 01:38:30;;;;;;;11.70;4.17;;;;;;;9.38;61.67;102132.39;1798671;78;21044;-71
2022/02/16 01:40:58;;;;;;;14.10;4.83;;;;;;;9.39;61.71;102135.44;1797183;78;20993;-71
2022/02/16 01:43:25;;;;;;;10.63;4.42;;;;;;;9.39;61.69;102135.44;1801031;78;20978;-73
2022/02/16 01:45:53;;;;;;;10.13;4.25;;;;;;;9.40;61.62;102137.58;1801256;80;21073;-72
2022/02/16 01:48:22;;;;;;;11.97;4.10;;;;;;;9.39;61.71;102128.95;1801445;80;20981;-76
2022/02/16 01:50:49;;;;;;;12.90;4.22;;;;;;;9.38;61.65;102118.52;1801246;78;20989;-71
2022/02/16 01:53:18;;;;;;;10.03;4.53;;;;;;;9.38;61.71;102119.41;1783800;80;21536;-70
2022/02/16 01:55:46;;;;;;;9.78;4.03;;;;;;;9.38;61.78;102119.41;1801337;78;20978;-71
2022/02/16 01:58:13;;;;;;;12.93;4.10;;;;;;;9.37;61.74;102122.88;1801196;78;20974;-71
2022/02/16 02:00:41;;;;;;;16.12;5.05;;;;;;;9.42;61.61;102121.16;1796771;80;20969;-74
2022/02/16 02:03:08;;;;;;;9.78;4.10;;;;;;;9.40;61.65;102122.88;1801352;78;20953;-70
2022/02/16 02:05:37;;;;;;;10.68;4.45;;;;;;;9.42;61.60;102118.97;1796771;80;21010;-69
2022/02/16 02:08:05;;;;;;;8.53;4.00;;;;;;;9.46;61.52;102120.76;1801332;78;21005;-71
2022/02/16 02:10:34;;;;;;;9.10;3.67;;;;;;;9.46;61.45;102121.59;1800883;78;21005;-71
2022/02/16 02:13:01;;;;;;;13.13;5.25;;;;;;;9.47;61.51;102124.66;1772903;79;20925;-73
2022/02/16 02:15:29;;;;;;;12.98;5.42;;;;;;;9.51;61.46;102134.63;1796877;78;21005;-70
2022/02/16 02:18:00;;;;;;;10.48;4.55;;;;;;;9.51;61.29;102132.90;1736245;80;21060;-71
2022/02/16 02:20:30;;;;;;;7.80;4.25;;;;;;;9.53;61.21;102127.70;1733029;83;21001;-73
2022/02/16 02:22:57;;;;;;;11.30;4.72;;;;;;;9.53;61.26;102123.80;1735842;83;21020;-69
2022/02/16 02:25:24;;;;;;;16.87;5.22;;;;;;;9.54;61.28;102125.09;1736008;80;21029;-72
2022/02/16 02:27:51;;;;;;;7.17;3.90;;;;;;;9.52;61.23;102117.73;1735906;80;21072;-69
2022/02/16 02:30:19;;;;;;;13.10;4.75;;;;;;;9.53;61.28;102125.98;1749850;81;21148;-71
2022/02/16 02:32:48;;;;;;;9.48;4.50;;;;;;;9.52;61.40;102124.22;1763672;80;21145;-75
2022/02/16 02:35:14;;;;;;;11.22;4.45;;;;;;;9.55;61.40;102119.48;1768752;80;21091;-73
2022/02/16 02:37:42;;;;;;;9.80;4.17;;;;;;;9.56;61.46;102116.88;1770251;81;21478;-69
2022/02/16 02:40:10;;;;;;;10.53;4.00;;;;;;;9.59;61.43;102118.20;1767916;80;20985;-71
2022/02/16 02:42:39;;;;;;;14.87;4.90;;;;;;;9.60;61.38;102109.53;1774057;80;21014;-69
2022/02/16 02:45:07;;;;;;;10.65;5.03;;;;;;;9.55;61.58;102111.26;1770812;80;21011;-73
2022/02/16 02:47:34;;;;;;;11.43;4.85;;;;;;;9.61;61.40;102105.20;1769674;80;21060;-75
2022/02/16 02:50:03;;;;;;;13.13;4.45;;;;;;;9.63;61.27;102103.06;1769462;81;20994;-69
2022/02/16 02:52:35;;;;;;;7.60;3.95;;;;;;;9.62;61.40;102102.60;1774991;80;21002;-69
2022/02/16 02:55:01;;;;;;;10.82;4.30;;;;;;;9.63;61.35;102099.16;1769064;80;21065;-69
2022/02/16 02:57:28;;;;;;;9.10;4.72;;;;;;;9.63;61.38;102099.16;1768088;80;21055;-70
2022/02/16 02:59:55;;;;;;;13.78;4.53;;;;;;;9.64;61.40;102094.84;1770590;81;21573;-69
2022/02/16 03:02:23;;;;;;;12.00;4.85;;;;;;;9.63;61.39;102096.56;1769776;80;21012;-70
2022/02/16 03:04:50;;;;;;;14.38;5.22;;;;;;;9.64;61.35;102094.84;1769605;80;21021;-70
2022/02/16 03:07:16;;;;;;;10.45;5.17;;;;;;;9.66;61.46;102100.48;1769798;80;20982;-73
2022/02/16 03:09:44;;;;;;;12.53;4.50;;;;;;;9.67;61.46;102106.10;1769496;80;21506;-71
2022/02/16 03:12:10;;;;;;;11.48;4.80;;;;;;;9.70;61.40;102103.95;1770219;80;21517;-70
2022/02/16 03:14:37;;;;;;;9.18;4.20;;;;;;;9.71;61.35;102100.05;1783116;78;21033;-73
2022/02/16 03:17:04;;;;;;;12.35;4.47;;;;;;;9.72;61.33;102099.20;1797648;79;21013;-71
2022/02/16 03:19:31;;;;;;;11.03;5.42;;;;;;;9.74;61.29;102102.67;1797502;80;21000;-69
2022/02/16 03:21:58;;;;;;;11.12;5.00;;;;;;;9.72;61.38;102096.60;1797996;78;21023;-71
2022/02/16 03:24:25;;;;;;;8.05;4.28;;;;;;;9.74;61.43;102099.20;1797692;78;20994;-76
2022/02/16 03:26:52;;;;;;;9.18;4.65;;;;;;;9.76;61.40;102089.67;1797693;78;21475;-70
2022/02/16 03:29:21;;;;;;;9.98;4.17;;;;;;;9.77;61.39;102091.39;1796294;78;21515;-71
2022/02/16 03:31:50;;;;;;;11.68;5.28;;;;;;;9.79;61.33;102090.54;1796895;80;21081;-70
2022/02/16 03:34:16;;;;;;;9.83;4.37;;;;;;;9.78;61.42;102088.81;1801493;78;20974;-74
2022/02/16 03:36:44;;;;;;;12.40;4.50;;;;;;;9.80;61.38;102090.99;1801208;78;20985;-71
2022/02/16 03:39:11;;;;;;;9.03;3.90;;;;;;;9.81;61.43;102090.11;1801322;80;21445;-69
2022/02/16 03:41:37;;;;;;;13.88;4.55;;;;;;;9.82;61.35;102087.97;1801669;80;21001;-76
2022/02/16 03:44:05;;;;;;;15.83;5.05;;;;;;;9.84;61.37;102087.53;1801245;80;20998;-69
2022/02/16 03:46:35;;;;;;;13.05;5.37;;;;;;;9.85;61.31;102085.35;1797172;80;21497;-69
2022/02/16 03:49:02;;;;;;;12.23;4.62;;;;;;;9.87;61.35;102081.91;1801335;80;21491;-69
2022/02/16 03:51:28;;;;;;;11.55;3.92;;;;;;;9.89;61.33;102082.77;1801478;78;20937;-71
2022/02/16 03:53:55;;;;;;;9.10;4.10;;;;;;;9.92;61.25;102086.66;1801323;80;20981;-73
2022/02/16 03:56:22;;;;;;;10.25;4.22;;;;;;;9.91;61.24;102083.64;1801408;78;21017;-73
2022/02/16 03:58:49;;;;;;;9.75;4.60;;;;;;;9.92;61.30;102078.86;1801137;80;21462;-72
2022/02/16 04:01:16;;;;;;;14.18;5.70;;;;;;;9.93;61.23;102082.80;1801435;80;21449;-69
2022/02/16 04:03:42;;;;;;;11.78;4.30;;;;;;;9.93;61.25;102081.91;1794463;80;21469;-70
2022/02/16 04:06:09;;;;;;;16.80;5.47;;;;;;;9.95;61.28;102087.98;1801474;78;21475;-72
2022/02/16 04:08:35;;;;;;;15.53;6.12;;;;;;;9.96;61.23;102081.91;1801547;78;21012;-69
2022/02/16 04:11:02;;;;;;;23.00;7.28;;;;;;;9.96;61.23;102080.18;1801479;78;21481;-69
2022/02/16 04:13:29;;;;;;;11.63;4.78;;;;;;;9.98;61.24;102077.57;1801069;80;21021;-71
2022/02/16 04:15:56;;;;;;;12.28;4.15;;;;;;;9.98;61.19;102081.05;1801286;80;21017;-74
2022/02/16 04:18:23;;;;;;;14.30;4.80;;;;;;;10.01;61.18;102078.89;1801323;80;20986;-70
2022/02/16 04:20:49;;;;;;;13.65;5.37;;;;;;;10.02;61.18;102085.81;1801488;80;20989;-73
2022/02/16 04:23:17;;;;;;;11.50;4.67;;;;;;;10.02;61.15;102079.31;1772584;80;20980;-71
2022/02/16 04:25:44;;;;;;;10.65;4.85;;;;;;;10.02;61.10;102076.71;1801060;78;21044;-70
2022/02/16 04:28:12;;;;;;;10.70;4.45;;;;;;;10.02;61.15;102081.91;1801124;80;21485;-69
2022/02/16 04:30:39;;;;;;;13.18;5.62;;;;;;;10.03;61.05;102077.16;1793973;78;21545;-72
2022/02/16 04:33:06;;;;;;;13.48;5.05;;;;;;;10.03;61.16;102081.06;1801025;79;21525;-69
2022/02/16 04:35:33;;;;;;;10.93;4.72;;;;;;;10.02;61.22;102078.01;1772846;78;21501;-73
2022/02/16 04:38:00;;;;;;;8.05;4.65;;;;;;;10.02;61.32;102076.71;1772380;80;21513;-71
2022/02/16 04:40:29;;;;;;;7.92;4.22;;;;;;;10.04;61.27;102077.58;1801046;78;21450;-70
2022/02/16 04:42:56;;;;;;;9.28;4.03;;;;;;;10.03;61.31;102069.36;1787935;78;20997;-69
2022/02/16 04:45:23;;;;;;;9.43;4.10;;;;;;;10.03;61.34;102073.27;1801427;80;21021;-75
2022/02/16 04:47:49;;;;;;;12.73;5.95;;;;;;;10.03;61.35;102077.16;1801429;78;20982;-72
2022/02/16 04:50:17;;;;;;;14.05;4.50;;;;;;;10.01;61.38;102074.98;1801473;80;21517;-70
2022/02/16 04:52:44;;;;;;;13.45;5.00;;;;;;;10.00;61.42;102074.54;1801296;78;21509;-72
2022/02/16 04:55:26;;;;;;;12.85;4.97;;;;;;;10.01;61.46;102072.39;1796215;80;21587;-69
2022/02/16 04:57:54;;;;;;;14.18;5.30;;;;;;;10.01;61.46;102078.89;1801434;78;20981;-70
2022/02/16 05:00:23;;;;;;;25.05;7.00;;;;;;;10.02;61.40;102077.59;1801401;78;21455;-70
2022/02/16 05:02:51;;;;;;;11.15;5.00;;;;;;;10.04;61.42;102080.18;1796999;78;21010;-68
2022/02/16 05:05:18;;;;;;;16.30;5.40;;;;;;;10.05;61.40;102088.01;1801048;78;21462;-72
2022/02/16 05:07:46;;;;;;;14.00;5.20;;;;;;;10.05;61.34;102084.11;1800994;80;21041;-72
2022/02/16 05:10:12;;;;;;;15.35;5.05;;;;;;;10.08;61.24;102088.42;1801399;80;21036;-70
2022/02/16 05:12:41;;;;;;;9.78;4.33;;;;;;;10.07;61.25;102085.40;1771141;79;20954;-70
2022/02/16 05:15:08;;;;;;;13.53;4.90;;;;;;;10.08;61.29;102084.52;1801553;80;21465;-69
2022/02/16 05:17:35;;;;;;;9.58;4.33;;;;;;;10.09;61.25;102088.88;1801080;80;20989;-73
2022/02/16 05:20:03;;;;;;;8.68;4.25;;;;;;;10.09;61.29;102088.45;1800974;78;21021;-69
2022/02/16 05:22:31;;;;;;;10.28;4.85;;;;;;;10.08;61.29;102088.42;1801370;78;20981;-69
2022/02/16 05:24:58;;;;;;;10.48;4.95;;;;;;;10.09;61.30;102091.47;1801375;78;21033;-70
2022/02/16 05:27:25;;;;;;;13.60;4.95;;;;;;;10.09;61.30;102090.17;1801429;80;20992;-70
2022/02/16 05:29:51;;;;;;;7.67;4.25;;;;;;;10.09;61.25;102084.97;1803756;78;21016;-74
2022/02/16 05:32:18;;;;;;;12.60;5.12;;;;;;;10.10;61.29;102093.22;1825291;77;21053;-72
2022/02/16 05:34:45;;;;;;;16.55;5.05;;;;;;;10.09;61.39;102096.67;1825531;77;21482;-69
2022/02/16 05:37:12;;;;;;;11.40;5.42;;;;;;;10.09;61.42;102096.67;1825581;78;21002;-72
2022/02/16 05:39:40;;;;;;;13.45;5.37;;;;;;;10.10;61.41;102103.63;1822609;77;21497;-70
2022/02/16 05:42:08;;;;;;;18.17;6.17;;;;;;;10.10;61.40;102097.13;1825697;78;21002;-70
2022/02/16 05:44:38;;;;;;;11.12;5.58;;;;;;;10.11;61.46;102096.28;1825618;78;20997;-69
2022/02/16 05:47:05;;;;;;;10.30;4.72;;;;;;;10.13;61.48;102093.24;1825308;77;21001;-71
2022/02/16 05:49:32;;;;;;;14.28;5.83;;;;;;;10.13;61.37;102087.62;1819096;78;21009;-69
2022/02/16 05:51:59;;;;;;;15.23;6.35;;;;;;;10.13;61.41;102088.04;1825435;77;21513;-72
2022/02/16 05:54:28;;;;;;;12.23;5.62;;;;;;;10.15;61.39;102091.52;1825550;77;20966;-69
2022/02/16 05:56:54;;;;;;;15.53;5.95;;;;;;;10.13;61.34;102085.02;1825661;77;20978;-73
2022/02/16 05:59:20;;;;;;;11.05;5.55;;;;;;;10.12;61.41;102084.56;1793944;78;20958;-72
2022/02/16 06:01:50;;;;;;;13.78;6.20;;;;;;;10.14;61.37;102084.59;1825456;78;21056;-72
2022/02/16 06:04:17;;;;;;;11.03;5.30;;;;;;;10.13;61.43;102088.04;1825715;77;20978;-72
2022/02/16 06:06:45;;;;;;;13.70;5.55;;;;;;;10.13;61.48;102082.84;1825519;77;21041;-71
2022/02/16 06:09:13;;;;;;;13.90;7.00;;;;;;;10.13;61.50;102082.84;1825557;78;20986;-71
2022/02/16 06:11:40;;;;;;;16.42;7.12;;;;;;;10.14;61.55;102082.83;1825370;77;21005;-69
2022/02/16 06:14:09;;;;;;;10.58;6.45;;;;;;;10.15;61.55;102085.01;1820631;78;21021;-76
2022/02/16 06:16:38;;;;;;;12.95;7.12;;;;;;;10.17;61.58;102081.97;1825240;77;21032;-72
2022/02/16 06:19:05;;;;;;;19.07;7.45;;;;;;;10.18;61.49;102085.03;1825815;77;20978;-71
2022/02/16 06:21:32;;;;;;;16.20;7.10;;;;;;;10.19;61.58;102084.14;1818648;77;21001;-72
2022/02/16 06:23:58;;;;;;;13.48;6.58;;;;;;;10.21;61.54;102085.02;1822464;78;20974;-74
2022/02/16 06:26:27;;;;;;;16.17;8.08;;;;;;;10.21;61.50;102085.02;1825768;78;20990;-73
2022/02/16 06:28:53;;;;;;;14.98;7.03;;;;;;;10.21;61.56;102081.98;1825710;77;20974;-70
2022/02/16 06:31:20;;;;;;;14.50;7.67;;;;;;;10.22;61.58;102089.36;1827362;77;21553;-69
2022/02/16 06:33:47;;;;;;;12.63;6.95;;;;;;;10.25;61.50;102082.42;1829100;78;21037;-71
2022/02/16 06:36:14;;;;;;;16.40;7.75;;;;;;;10.25;61.51;102077.64;1828933;77;21013;-72
2022/02/16 06:38:41;;;;;;;15.40;7.25;;;;;;;10.27;61.54;102071.58;1828936;77;21005;-69
2022/02/16 06:41:11;;;;;;;12.60;6.80;;;;;;;10.29;61.50;102078.08;1828912;77;20978;-70
2022/02/16 06:43:37;;;;;;;13.80;7.03;;;;;;;10.28;61.54;102076.36;1829126;78;21008;-72
2022/02/16 06:46:04;;;;;;;15.78;7.47;;;;;;;10.30;61.56;102078.53;1829241;77;20982;-69
2022/02/16 06:48:31;;;;;;;11.78;6.97;;;;;;;10.31;61.43;102069.84;1828955;77;21072;-69
2022/02/16 06:50:58;;;;;;;14.60;7.47;;;;;;;10.33;61.41;102068.11;1829246;77;21044;-72
2022/02/16 06:53:24;;;;;;;11.65;6.90;;;;;;;10.34;61.33;102064.65;1828932;78;21009;-70
2022/02/16 06:55:51;;;;;;;16.20;7.47;;;;;;;10.34;61.40;102063.35;1828986;77;21017;-70
2022/02/16 06:58:20;;;;;;;20.45;8.15;;;;;;;10.35;61.40;102062.47;1825103;78;20986;-73
2022/02/16 07:00:46;;;;;;;15.20;7.72;;;;;;;10.37;61.46;102056.83;1829175;77;20997;-69
2022/02/16 07:03:14;;;;;;;17.87;8.55;;;;;;;10.41;61.48;102062.46;1829212;78;21006;-71
2022/02/16 07:05:43;;;;;;;16.85;8.23;;;;;;;10.44;61.45;102070.28;1825043;78;21462;-72
2022/02/16 07:08:11;;;;;;;18.05;8.65;;;;;;;10.47;61.39;102068.97;1825022;78;20958;-70
2022/02/16 07:10:39;;;;;;;15.03;7.75;;;;;;;10.53;61.29;102071.59;1829027;77;21533;-73
2022/02/16 07:13:07;;;;;;;14.50;7.28;;;;;;;10.54;61.17;102065.50;1828920;78;21026;-71
2022/02/16 07:15:34;;;;;;;14.23;7.15;;;;;;;10.56;61.08;102062.47;1828820;78;21006;-73
2022/02/16 07:18:02;;;;;;;20.10;7.53;;;;;;;10.58;61.12;102060.73;1829133;78;20998;-71
2022/02/16 07:20:32;;;;;;;17.70;6.60;;;;;;;10.59;61.10;102062.02;1824980;78;20990;-71
2022/02/16 07:23:00;;;;;;;15.13;7.40;;;;;;;10.62;61.08;102059.85;1829162;78;20965;-73
2022/02/16 07:25:29;;;;;;;16.87;7.03;;;;;;;10.64;61.08;102062.02;1829139;77;20985;-74
2022/02/16 07:27:56;;;;;;;17.05;7.72;;;;;;;10.67;61.07;102059.42;1815080;78;21072;-68
2022/02/16 07:30:24;;;;;;;20.48;7.15;;;;;;;10.70;60.96;102056.80;1828495;78;21018;-68
2022/02/16 07:32:51;;;;;;;15.13;6.80;;;;;;;10.73;60.90;102059.84;1825534;77;21095;-69
2022/02/16 07:35:18;;;;;;;15.03;6.60;;;;;;;10.76;60.87;102054.19;1825473;77;21060;-71
2022/02/16 07:37:45;;;;;;;19.20;6.72;;;;;;;10.79;60.70;102064.61;1825762;78;20986;-74
2022/02/16 07:40:13;;;;;;;14.47;5.90;;;;;;;10.83;60.60;102069.37;1825411;78;21029;-72
2022/02/16 07:42:41;;;;;;;19.48;6.75;;;;;;;10.86;60.48;102070.22;1825430;78;21029;-68
2022/02/16 07:45:26;;;;;;;10.85;5.83;;;;;;;10.89;60.50;102065.02;1813195;77;21447;-69
2022/02/16 07:47:52;;;;;;;14.65;6.25;;;;;;;10.95;60.43;102059.80;1825676;78;21001;-70
2022/02/16 07:50:19;;;;;;;12.93;6.00;;;;;;;11.00;60.22;102056.75;1825824;77;20986;-73
2022/02/16 07:53:01;;;;;;;13.65;6.65;;;;;;;11.06;60.20;102056.73;1720763;82;21589;-69
2022/02/16 07:55:33;;;;;;;10.60;6.15;;;;;;;11.14;60.18;102052.36;1723080;83;21109;-68
2022/02/16 07:58:01;;;;;;;16.32;6.03;;;;;;;11.23;60.01;102054.91;1724624;82;21073;-70
2022/02/16 08:00:35;;;;;;;13.70;7.58;;;;;;;11.31;59.81;102055.75;1724569;83;21034;-68
2022/02/16 08:03:06;;;;;;;15.78;6.83;;;;;;;11.40;59.81;102060.94;1713927;83;21080;-68
2022/02/16 08:05:34;;;;;;;13.83;6.90;;;;;;;11.51;59.63;102052.19;1689855;85;21042;-69
2022/02/16 08:08:01;;;;;;;20.37;6.90;;;;;;;11.61;59.38;102052.57;1689567;85;21026;-68
2022/02/16 08:10:29;;;;;;;13.48;6.67;;;;;;;11.69;59.12;102057.34;1660265;86;21562;-73
2022/02/16 08:12:56;;;;;;;16.32;7.00;;;;;;;11.75;58.91;102049.48;1679349;85;20991;-68
2022/02/16 08:15:24;;;;;;;21.73;6.97;;;;;;;11.82;58.74;102049.88;1679452;85;21054;-67
2022/02/16 08:17:52;;;;;;;22.73;7.97;;;;;;;11.87;58.61;102049.43;1679556;85;21165;-72
2022/02/16 08:20:19;;;;;;;14.05;6.40;;;;;;;11.94;58.33;102043.27;1679427;85;21074;-69
2022/02/16 08:22:48;;;;;;;17.12;7.25;;;;;;;11.99;58.06;102049.34;1617977;88;21066;-67
2022/02/16 08:25:15;;;;;;;17.17;7.50;;;;;;;12.03;57.91;102044.53;1650302;86;21056;-67
2022/02/16 08:27:57;;;;;;;15.25;7.08;;;;;;;12.03;57.81;102034.97;1636184;88;21213;-71
2022/02/16 08:30:24;;;;;;;15.30;6.80;;;;;;;12.05;57.70;102032.34;1642648;87;21035;-69
2022/02/16 08:32:53;;;;;;;14.28;7.42;;;;;;;12.06;57.68;102032.75;1643994;86;21072;-67
2022/02/16 08:35:36;;;;;;;17.23;7.92;;;;;;;12.08;57.56;102028.38;1644124;86;21037;-68
2022/02/16 08:38:02;;;;;;;15.30;7.85;;;;;;;12.09;57.58;102026.22;1643847;86;21148;-70
2022/02/16 08:40:30;;;;;;;13.40;7.17;;;;;;;12.10;57.51;102023.59;1643832;86;21083;-68
2022/02/16 08:42:57;;;;;;;18.25;7.40;;;;;;;12.12;57.48;102027.48;1644194;86;21538;-70
2022/02/16 08:45:25;;;;;;;17.10;7.65;;;;;;;12.13;57.36;102029.23;1644314;87;21059;-68
2022/02/16 08:47:51;;;;;;;16.00;7.30;;;;;;;12.13;57.40;102027.92;1644098;86;21041;-68
2022/02/16 08:50:18;;;;;;;12.98;6.37;;;;;;;12.16;57.36;102033.09;1644310;86;21053;-71
2022/02/16 08:52:44;;;;;;;15.35;7.47;;;;;;;12.17;57.25;102030.94;1643907;86;21033;-69
2022/02/16 08:55:11;;;;;;;18.75;7.33;;;;;;;12.19;57.17;102029.17;1644162;87;21078;-69
2022/02/16 08:57:39;;;;;;;17.70;7.47;;;;;;;12.20;57.06;102026.55;1644071;86;21058;-70
2022/02/16 09:00:08;;;;;;;15.00;7.47;;;;;;;12.21;56.98;102028.30;1645354;84;21502;-68
2022/02/16 09:02:37;;;;;;;14.00;7.70;;;;;;;12.22;56.90;102021.30;1610215;87;21079;-70
2022/02/16 09:05:06;;;;;;;18.10;7.50;;;;;;;12.20;56.96;102015.23;1819728;77;20985;-68
2022/02/16 09:07:34;;;;;;;16.50;8.35;;;;;;;12.18;56.80;102015.25;1773953;80;21044;-68
2022/02/16 09:10:05;;;;;;;15.32;7.30;;;;;;;12.16;56.94;102014.84;1773979;80;20982;-68
2022/02/16 09:12:33;;;;;;;13.98;7.22;;;;;;;12.14;56.93;102008.77;1773810;80;21037;-69
2022/02/16 09:15:00;;;;;;;16.40;8.13;;;;;;;12.12;57.08;102005.30;1777805;80;21155;-70
2022/02/16 09:17:27;;;;;;;18.92;7.97;;;;;;;12.11;57.10;102002.28;1774426;80;21050;-73
2022/02/16 09:19:53;;;;;;;14.63;7.25;;;;;;;12.11;57.11;101994.45;1775998;80;21517;-69
2022/02/16 09:22:21;;;;;;;20.37;7.85;;;;;;;12.12;57.16;101993.56;1776921;80;21615;-68
2022/02/16 09:24:47;;;;;;;17.65;7.65;;;;;;;12.10;57.18;101992.71;1777535;80;21065;-70
2022/02/16 09:27:14;;;;;;;18.70;8.45;;;;;;;12.11;57.21;101994.03;1777140;80;20985;-69
2022/02/16 09:29:42;;;;;;;16.40;8.48;;;;;;;12.14;57.27;101994.41;1773732;80;20982;-68
2022/02/16 09:32:09;;;;;;;22.58;9.28;;;;;;;12.16;57.14;101990.05;1730410;82;21045;-74
2022/02/16 09:34:36;;;;;;;22.00;8.55;;;;;;;12.19;56.85;101990.03;1734265;82;21046;-68
2022/02/16 09:37:03;;;;;;;22.35;8.25;;;;;;;12.17;56.87;101981.36;1729573;82;21063;-71
2022/02/16 09:39:31;;;;;;;22.27;7.33;;;;;;;12.19;56.99;101976.98;1735884;82;21066;-68
2022/02/16 09:41:58;;;;;;;16.42;8.55;;;;;;;12.21;56.90;101976.53;1734604;82;21058;-70
2022/02/16 09:44:38;;;;;;;18.80;8.48;;;;;;;12.24;56.84;101971.30;1734450;82;21011;-68
2022/02/16 09:47:05;;;;;;;17.95;8.00;;;;;;;12.27;56.79;101962.13;1734201;82;21546;-68
2022/02/16 09:49:33;;;;;;;17.48;8.78;;;;;;;12.31;56.70;101955.99;1734478;82;20965;-69
2022/02/16 09:52:00;;;;;;;21.30;8.88;;;;;;;12.32;56.57;101955.13;1712892;82;20976;-67
2022/02/16 09:54:27;;;;;;;17.87;7.60;;;;;;;12.34;56.53;101942.92;1735160;82;21527;-70
2022/02/16 09:56:53;;;;;;;18.65;8.90;;;;;;;12.36;56.44;101943.78;1736983;82;21026;-68
2022/02/16 09:59:20;;;;;;;23.27;8.63;;;;;;;12.39;56.35;101940.24;1736859;82;21067;-71
2022/02/16 10:02:05;;;;;;;14.80;8.20;;;;;;;12.39;56.38;101937.20;1728765;82;20972;-68
2022/02/16 10:04:33;;;;;;;18.05;8.55;;;;;;;12.41;56.32;101936.74;1620514;87;21067;-70
2022/02/16 10:07:01;;;;;;;17.25;7.90;;;;;;;12.44;56.25;101938.47;1632824;87;21516;-70
2022/02/16 10:09:35;;;;;;;15.85;8.13;;;;;;;12.46;56.17;101933.66;1633880;87;21077;-69
2022/02/16 10:12:04;;;;;;;15.45;7.62;;;;;;;12.47;56.16;101930.16;1630994;87;21519;-75
2022/02/16 10:14:34;;;;;;;20.70;8.60;;;;;;;12.49;56.07;101927.55;1634760;87;21084;-69
2022/02/16 10:17:18;;;;;;;25.45;9.73;;;;;;;12.51;56.00;101933.15;1634612;87;21079;-69
2022/02/16 10:20:01;;;;;;;16.23;8.18;;;;;;;12.52;56.10;101927.06;1634079;87;21023;-68
2022/02/16 10:22:32;;;;;;;19.27;8.30;;;;;;;12.55;55.95;101919.17;1634615;87;21043;-71
2022/02/16 10:25:15;;;;;;;20.60;8.65;;;;;;;12.60;55.92;101913.48;1631417;86;21094;-71
2022/02/16 10:28:04;;;;;;;21.05;9.35;;;;;;;12.64;55.68;101912.56;1631603;87;21002;-69
2022/02/16 10:30:32;;;;;;;20.08;8.73;;;;;;;12.67;55.69;101903.83;1633876;87;21108;-69
2022/02/16 10:33:21;;;;;;;16.37;7.72;;;;;;;12.70;55.60;101898.12;1628559;87;21087;-68
2022/02/16 10:35:48;;;;;;;21.65;9.68;;;;;;;12.74;55.48;101902.42;1652830;85;21064;-70
2022/02/16 10:38:15;;;;;;;18.15;9.15;;;;;;;12.76;55.28;101890.20;1656997;85;21053;-68
2022/02/16 10:40:42;;;;;;;19.45;8.83;;;;;;;12.78;55.31;101891.05;1656903;85;21065;-69
2022/02/16 10:43:08;;;;;;;19.35;8.65;;;;;;;12.81;55.24;101889.72;1665816;85;21485;-69
2022/02/16 10:45:47;;;;;;;20.75;8.15;;;;;;;12.84;55.12;101896.19;1665261;85;21524;-71
2022/02/16 10:48:15;;;;;;;17.00;8.35;;;;;;;12.85;55.11;101896.62;1658227;85;21037;-71
2022/02/16 10:50:48;;;;;;;19.42;8.95;;;;;;;12.86;55.07;101891.81;1666441;85;21025;-71
2022/02/16 10:53:28;;;;;;;16.50;8.55;;;;;;;12.87;55.04;101887.03;1659821;85;21040;-69
2022/02/16 10:55:55;;;;;;;18.83;8.23;;;;;;;12.88;54.94;101884.81;1658965;85;21004;-72
2022/02/16 10:58:24;;;;;;;16.42;7.92;;;;;;;12.89;54.93;101886.56;1663850;85;20969;-68
2022/02/16 11:00:55;;;;;;;15.68;8.10;;;;;;;12.90;55.00;101888.27;1707064;80;20982;-68
2022/02/16 11:03:36;;;;;;;21.55;8.65;;;;;;;12.94;54.92;101889.95;1754331;80;21060;-69
2022/02/16 11:06:06;;;;;;;15.48;8.70;;;;;;;12.96;54.86;101881.66;1763016;80;21010;-70
2022/02/16 11:08:34;;;;;;;20.90;8.58;;;;;;;12.98;54.83;101885.11;1762989;81;21021;-72
2022/02/16 11:11:03;;;;;;;17.37;8.93;;;;;;;13.02;54.71;101877.65;1763020;80;20994;-69
2022/02/16 11:13:34;;;;;;;22.48;8.93;;;;;;;13.05;54.61;101881.58;1763063;81;21003;-71
2022/02/16 11:16:01;;;;;;;18.17;8.88;;;;;;;13.06;54.47;101876.75;1750110;81;21043;-71
2022/02/16 11:18:32;;;;;;;14.87;9.05;;;;;;;13.10;54.52;101875.42;1762871;81;21101;-69
2022/02/16 11:21:14;;;;;;;19.82;8.98;;;;;;;13.13;54.36;101868.86;1762985;80;21005;-71
2022/02/16 11:23:52;;;;;;;16.95;8.45;;;;;;;13.16;54.30;101867.48;1759637;80;21538;-73
2022/02/16 11:26:37;;;;;;;20.62;8.95;;;;;;;13.18;54.17;101861.80;1673596;84;21100;-71